»·PEaware :: N6471M KDEN-KASE

N6471M :: KDEN-KASE

FLIGHT INFORMATION

Flight Status: Arrived
Operator: Privately registered:
United States
More flights under this callsign
Pilot: Peter U. (18953)
Aircraft: SAAB 340
(SF34)
More flights by this aircraft type
Origin: KDEN Denver Intl
United States
Destination: KASE Aspen-Pitkin Co/Sardy
United States
More flights between these airports :: More routes between these airports
Route: +ROCKI3 DBL
File this flight plan on PilotEdge
Remarks: first!
Altitude:
(Current/Filed)
16,000ft
Speed:
(Current/Filed)
180kts
Departed: 22-Apr-18 05:23 PM
Arrived: 22-Apr-18 06:00 PM
Distance/Time
Traveled:
109nm/0:37
Distance/Time
To Go:
Arrived

Flight Plot

Page will automatically refresh every two minutes.


Map Options




Map Legend


Flown Route
Filed Route
Departure Airport
Arrival Airport
Navaid (VOR, NDB)
Fix

Horizontal Profiles

Position Reports

Time Latitude Longitude Heading Altitude Ground
Speed
22-Apr-18 17:01 39.837840 -104.665234 1 5439ft 0kts
22-Apr-18 17:02 39.837840 -104.665234 1 5439ft 0kts
22-Apr-18 17:03 39.837840 -104.665234 1 5439ft 0kts
22-Apr-18 17:04 39.837840 -104.665234 1 5439ft 0kts
22-Apr-18 17:05 39.837840 -104.665234 1 5439ft 0kts
22-Apr-18 17:06 39.837840 -104.665234 1 5439ft 0kts
22-Apr-18 17:07 39.837840 -104.665234 1 5439ft 0kts
22-Apr-18 17:08 39.837840 -104.665234 1 5439ft 0kts
22-Apr-18 17:09 39.837840 -104.665234 1 5439ft 0kts
22-Apr-18 17:10 39.837840 -104.665234 1 5439ft 0kts
22-Apr-18 17:11 39.837840 -104.665234 1 5439ft 0kts
22-Apr-18 17:12 39.837840 -104.665234 1 5439ft 0kts
22-Apr-18 17:13 39.837841 -104.665234 1 5439ft 0kts
22-Apr-18 17:14 39.838179 -104.665169 19 5439ft 0kts
22-Apr-18 17:15 39.839718 -104.664023 42 5439ft 3kts
22-Apr-18 17:16 39.840191 -104.662929 93 5439ft 1kts
22-Apr-18 17:17 39.837656 -104.662557 180 5439ft 16kts
22-Apr-18 17:18 39.834391 -104.662610 180 5439ft 10kts
22-Apr-18 17:19 39.830800 -104.662644 181 5439ft 11kts
22-Apr-18 17:20 39.828404 -104.662076 87 5439ft 4kts
22-Apr-18 17:21 39.828406 -104.661994 88 5439ft 0kts
22-Apr-18 17:22 39.833399 -104.660457 1 5439ft 87kts
22-Apr-18 17:23 39.874024 -104.666684 315 6341ft 184kts
22-Apr-18 17:24 39.879191 -104.731003 273 8082ft 186kts
22-Apr-18 17:25 39.878601 -104.798806 273 9564ft 189kts
22-Apr-18 17:26 39.877725 -104.866410 273 11189ft 186kts
22-Apr-18 17:27 39.876818 -104.933975 273 12505ft 188kts
22-Apr-18 17:28 39.851008 -104.992337 231 13672ft 197kts
22-Apr-18 17:29 39.815150 -105.046292 232 14750ft 198kts
22-Apr-18 17:30 39.780166 -105.100442 233 15864ft 193kts
22-Apr-18 17:31 39.758016 -105.167040 263 16015ft 223kts
22-Apr-18 17:32 39.750896 -105.230878 264 16923ft 202kts
22-Apr-18 17:33 39.742342 -105.308276 263 17003ft 229kts
22-Apr-18 17:34 39.733046 -105.392543 264 17004ft 241kts
22-Apr-18 17:35 39.723282 -105.479474 264 17030ft 245kts
22-Apr-18 17:36 39.713399 -105.567224 264 17074ft 245kts
22-Apr-18 17:37 39.703571 -105.653705 263 17088ft 247kts
22-Apr-18 17:38 39.688609 -105.739887 256 17091ft 249kts
22-Apr-18 17:39 39.670222 -105.826509 256 17092ft 249kts
22-Apr-18 17:40 39.651845 -105.913414 256 17096ft 249kts
22-Apr-18 17:41 39.633494 -106.000110 256 17100ft 249kts
22-Apr-18 17:42 39.615091 -106.086743 256 17104ft 249kts
22-Apr-18 17:43 39.596541 -106.173463 256 17115ft 249kts
22-Apr-18 17:44 39.578104 -106.260093 256 17122ft 249kts
22-Apr-18 17:45 39.559671 -106.346359 256 17120ft 249kts
22-Apr-18 17:46 39.544318 -106.434189 265 17088ft 249kts
22-Apr-18 17:47 39.542038 -106.521010 273 17054ft 249kts
22-Apr-18 17:48 39.541775 -106.610055 248 17030ft 251kts
22-Apr-18 17:49 39.520240 -106.689692 258 17008ft 225kts
22-Apr-18 17:50 39.515393 -106.761520 279 16382ft 196kts
22-Apr-18 17:51 39.523704 -106.841897 279 14089ft 221kts
22-Apr-18 17:52 39.523556 -106.916212 239 13396ft 202kts
22-Apr-18 17:53 39.483320 -106.957285 188 13391ft 199kts
22-Apr-18 17:54 39.425540 -106.965647 187 13398ft 217kts
22-Apr-18 17:55 39.368929 -106.938051 159 12715ft 212kts
22-Apr-18 17:56 39.317655 -106.913004 159 10435ft 168kts
22-Apr-18 17:57 39.275337 -106.894095 158 8675ft 163kts
22-Apr-18 17:58 39.234896 -106.874486 159 7895ft 142kts
22-Apr-18 17:59 39.218788 -106.866386 109 7841ft 5kts
22-Apr-18 18:00 39.220086 -106.866185 339 7841ft 11kts
22-Apr-18 18:01 39.221426 -106.866115 237 7841ft 0kts
22-Apr-18 18:02 39.221426 -106.866115 237 7841ft 0kts

Navigation Log

Ident Type
1. KDEN Airport
2. DEN Navaid
3. CONNR Fix
4. DBL Navaid
5. KASE Airport